sensor_id;sensor_type;location;lat;lon;timestamp;P1;durP1;ratioP1;P2;durP2;ratioP2
23498;SDS011;11926;48.120;11.562;2022-09-09T00:02:28;4.32;;;1.58;;
23498;SDS011;11926;48.120;11.562;2022-09-09T00:05:17;3.65;;;1.50;;
23498;SDS011;11926;48.120;11.562;2022-09-09T00:08:13;3.80;;;1.58;;
23498;SDS011;11926;48.120;11.562;2022-09-09T00:11:05;5.20;;;1.77;;
23498;SDS011;11926;48.120;11.562;2022-09-09T00:13:55;4.80;;;1.67;;
23498;SDS011;11926;48.120;11.562;2022-09-09T00:16:49;4.38;;;1.50;;
23498;SDS011;11926;48.120;11.562;2022-09-09T00:19:41;3.83;;;1.50;;
23498;SDS011;11926;48.120;11.562;2022-09-09T00:22:35;5.80;;;1.88;;
23498;SDS011;11926;48.120;11.562;2022-09-09T00:25:27;4.68;;;1.42;;
23498;SDS011;11926;48.120;11.562;2022-09-09T00:28:21;3.55;;;1.63;;
23498;SDS011;11926;48.120;11.562;2022-09-09T00:31:12;4.72;;;1.67;;
23498;SDS011;11926;48.120;11.562;2022-09-09T00:34:09;2.70;;;1.52;;
23498;SDS011;11926;48.120;11.562;2022-09-09T00:36:59;5.88;;;1.55;;
23498;SDS011;11926;48.120;11.562;2022-09-09T00:39:46;6.18;;;2.03;;
23498;SDS011;11926;48.120;11.562;2022-09-09T00:42:39;5.63;;;1.80;;
23498;SDS011;11926;48.120;11.562;2022-09-09T00:45:34;2.88;;;1.45;;
23498;SDS011;11926;48.120;11.562;2022-09-09T00:48:34;4.20;;;1.85;;
23498;SDS011;11926;48.120;11.562;2022-09-09T00:51:33;4.55;;;1.80;;
23498;SDS011;11926;48.120;11.562;2022-09-09T00:54:33;4.07;;;1.90;;
23498;SDS011;11926;48.120;11.562;2022-09-09T00:57:32;4.32;;;1.55;;
23498;SDS011;11926;48.120;11.562;2022-09-09T01:00:22;2.72;;;1.45;;
23498;SDS011;11926;48.120;11.562;2022-09-09T01:03:16;4.25;;;1.70;;
23498;SDS011;11926;48.120;11.562;2022-09-09T01:06:12;5.43;;;1.60;;
23498;SDS011;11926;48.120;11.562;2022-09-09T01:09:07;4.40;;;1.50;;
23498;SDS011;11926;48.120;11.562;2022-09-09T01:12:05;3.10;;;1.38;;
23498;SDS011;11926;48.120;11.562;2022-09-09T01:15:03;4.10;;;1.83;;
23498;SDS011;11926;48.120;11.562;2022-09-09T01:18:04;4.45;;;1.60;;
23498;SDS011;11926;48.120;11.562;2022-09-09T01:21:01;5.18;;;1.88;;
23498;SDS011;11926;48.120;11.562;2022-09-09T01:24:03;3.83;;;1.50;;
23498;SDS011;11926;48.120;11.562;2022-09-09T01:27:17;5.50;;;1.65;;
23498;SDS011;11926;48.120;11.562;2022-09-09T01:30:08;4.32;;;1.75;;
23498;SDS011;11926;48.120;11.562;2022-09-09T01:32:57;4.47;;;2.03;;
23498;SDS011;11926;48.120;11.562;2022-09-09T01:35:48;5.45;;;1.70;;
23498;SDS011;11926;48.120;11.562;2022-09-09T01:38:43;5.35;;;1.90;;
23498;SDS011;11926;48.120;11.562;2022-09-09T01:41:31;4.57;;;1.70;;
23498;SDS011;11926;48.120;11.562;2022-09-09T01:44:23;5.15;;;2.00;;
23498;SDS011;11926;48.120;11.562;2022-09-09T01:47:12;7.15;;;2.10;;
23498;SDS011;11926;48.120;11.562;2022-09-09T01:50:16;3.90;;;1.90;;
23498;SDS011;11926;48.120;11.562;2022-09-09T01:53:05;6.10;;;2.30;;
23498;SDS011;11926;48.120;11.562;2022-09-09T01:55:56;7.15;;;1.83;;
23498;SDS011;11926;48.120;11.562;2022-09-09T01:59:03;6.07;;;1.90;;
23498;SDS011;11926;48.120;11.562;2022-09-09T02:02:06;3.33;;;1.67;;
23498;SDS011;11926;48.120;11.562;2022-09-09T02:05:06;3.83;;;1.52;;
23498;SDS011;11926;48.120;11.562;2022-09-09T02:08:04;3.72;;;1.75;;
23498;SDS011;11926;48.120;11.562;2022-09-09T02:11:05;5.72;;;2.00;;
23498;SDS011;11926;48.120;11.562;2022-09-09T02:14:01;3.03;;;1.67;;
23498;SDS011;11926;48.120;11.562;2022-09-09T02:16:52;2.90;;;1.73;;
23498;SDS011;11926;48.120;11.562;2022-09-09T02:19:56;4.10;;;1.90;;
23498;SDS011;11926;48.120;11.562;2022-09-09T02:22:58;5.13;;;1.75;;
23498;SDS011;11926;48.120;11.562;2022-09-09T02:25:48;5.20;;;1.70;;
23498;SDS011;11926;48.120;11.562;2022-09-09T02:28:41;7.85;;;1.83;;
23498;SDS011;11926;48.120;11.562;2022-09-09T02:31:29;3.75;;;1.65;;
23498;SDS011;11926;48.120;11.562;2022-09-09T02:34:25;4.95;;;1.60;;
23498;SDS011;11926;48.120;11.562;2022-09-09T02:37:17;3.35;;;1.50;;
23498;SDS011;11926;48.120;11.562;2022-09-09T02:40:11;3.70;;;1.80;;
23498;SDS011;11926;48.120;11.562;2022-09-09T02:43:06;4.95;;;1.77;;
23498;SDS011;11926;48.120;11.562;2022-09-09T02:45:56;5.22;;;1.58;;
23498;SDS011;11926;48.120;11.562;2022-09-09T02:48:57;3.17;;;1.42;;
23498;SDS011;11926;48.120;11.562;2022-09-09T02:51:51;6.40;;;1.40;;
23498;SDS011;11926;48.120;11.562;2022-09-09T02:54:48;5.20;;;1.40;;
23498;SDS011;11926;48.120;11.562;2022-09-09T02:57:42;2.67;;;1.70;;
23498;SDS011;11926;48.120;11.562;2022-09-09T03:00:35;3.78;;;1.38;;
23498;SDS011;11926;48.120;11.562;2022-09-09T03:03:22;5.35;;;1.30;;
23498;SDS011;11926;48.120;11.562;2022-09-09T03:06:10;4.88;;;1.55;;
23498;SDS011;11926;48.120;11.562;2022-09-09T03:08:58;2.60;;;1.25;;
23498;SDS011;11926;48.120;11.562;2022-09-09T03:11:49;4.00;;;1.30;;
23498;SDS011;11926;48.120;11.562;2022-09-09T03:14:38;2.03;;;1.13;;
23498;SDS011;11926;48.120;11.562;2022-09-09T03:17:25;3.25;;;1.20;;
23498;SDS011;11926;48.120;11.562;2022-09-09T03:20:15;2.42;;;1.20;;
23498;SDS011;11926;48.120;11.562;2022-09-09T03:23:03;4.68;;;1.38;;
23498;SDS011;11926;48.120;11.562;2022-09-09T03:25:50;3.35;;;1.35;;
23498;SDS011;11926;48.120;11.562;2022-09-09T03:28:46;2.50;;;1.30;;
23498;SDS011;11926;48.120;11.562;2022-09-09T03:31:36;6.55;;;1.50;;
23498;SDS011;11926;48.120;11.562;2022-09-09T03:34:24;4.25;;;1.60;;
23498;SDS011;11926;48.120;11.562;2022-09-09T03:37:11;2.63;;;1.35;;
23498;SDS011;11926;48.120;11.562;2022-09-09T03:39:58;4.50;;;1.60;;
23498;SDS011;11926;48.120;11.562;2022-09-09T03:42:46;3.60;;;1.65;;
23498;SDS011;11926;48.120;11.562;2022-09-09T03:45:36;4.53;;;1.42;;
23498;SDS011;11926;48.120;11.562;2022-09-09T03:48:23;5.10;;;1.48;;
23498;SDS011;11926;48.120;11.562;2022-09-09T03:51:13;4.97;;;1.40;;
23498;SDS011;11926;48.120;11.562;2022-09-09T03:54:01;5.22;;;1.75;;
23498;SDS011;11926;48.120;11.562;2022-09-09T03:56:50;4.88;;;1.50;;
23498;SDS011;11926;48.120;11.562;2022-09-09T03:59:39;7.43;;;1.50;;
23498;SDS011;11926;48.120;11.562;2022-09-09T04:02:28;2.92;;;1.25;;
23498;SDS011;11926;48.120;11.562;2022-09-09T04:05:15;2.38;;;1.35;;
23498;SDS011;11926;48.120;11.562;2022-09-09T04:08:05;3.45;;;1.67;;
23498;SDS011;11926;48.120;11.562;2022-09-09T04:10:54;2.90;;;1.20;;
23498;SDS011;11926;48.120;11.562;2022-09-09T04:13:44;4.13;;;1.55;;
23498;SDS011;11926;48.120;11.562;2022-09-09T04:16:31;2.15;;;1.30;;
23498;SDS011;11926;48.120;11.562;2022-09-09T04:19:21;3.05;;;1.67;;
23498;SDS011;11926;48.120;11.562;2022-09-09T04:22:08;2.72;;;1.30;;
23498;SDS011;11926;48.120;11.562;2022-09-09T04:24:55;5.28;;;1.50;;
23498;SDS011;11926;48.120;11.562;2022-09-09T04:27:42;5.90;;;1.65;;
23498;SDS011;11926;48.120;11.562;2022-09-09T04:30:29;5.72;;;2.03;;
23498;SDS011;11926;48.120;11.562;2022-09-09T04:33:17;3.00;;;1.63;;
23498;SDS011;11926;48.120;11.562;2022-09-09T04:36:08;3.60;;;1.70;;
23498;SDS011;11926;48.120;11.562;2022-09-09T04:38:55;4.25;;;1.67;;
23498;SDS011;11926;48.120;11.562;2022-09-09T04:41:43;4.88;;;1.60;;
23498;SDS011;11926;48.120;11.562;2022-09-09T04:44:30;3.63;;;1.50;;
23498;SDS011;11926;48.120;11.562;2022-09-09T04:47:17;3.40;;;1.35;;
23498;SDS011;11926;48.120;11.562;2022-09-09T04:50:04;2.30;;;1.40;;
23498;SDS011;11926;48.120;11.562;2022-09-09T04:52:53;4.03;;;1.75;;
23498;SDS011;11926;48.120;11.562;2022-09-09T04:55:41;3.83;;;1.55;;
23498;SDS011;11926;48.120;11.562;2022-09-09T04:58:28;4.63;;;1.40;;
23498;SDS011;11926;48.120;11.562;2022-09-09T05:01:16;2.35;;;1.40;;
23498;SDS011;11926;48.120;11.562;2022-09-09T05:04:06;3.40;;;1.52;;
23498;SDS011;11926;48.120;11.562;2022-09-09T05:06:54;3.33;;;1.50;;
23498;SDS011;11926;48.120;11.562;2022-09-09T05:09:43;2.70;;;1.50;;
23498;SDS011;11926;48.120;11.562;2022-09-09T05:12:30;5.43;;;1.88;;
23498;SDS011;11926;48.120;11.562;2022-09-09T05:15:17;8.27;;;1.73;;
23498;SDS011;11926;48.120;11.562;2022-09-09T05:18:05;3.90;;;1.40;;
23498;SDS011;11926;48.120;11.562;2022-09-09T05:20:58;5.47;;;1.70;;
23498;SDS011;11926;48.120;11.562;2022-09-09T05:23:48;5.38;;;1.80;;
23498;SDS011;11926;48.120;11.562;2022-09-09T05:26:38;2.90;;;1.48;;
23498;SDS011;11926;48.120;11.562;2022-09-09T05:29:26;5.28;;;1.60;;
23498;SDS011;11926;48.120;11.562;2022-09-09T05:32:14;7.22;;;1.95;;
23498;SDS011;11926;48.120;11.562;2022-09-09T05:35:05;3.10;;;1.40;;
23498;SDS011;11926;48.120;11.562;2022-09-09T05:37:52;4.47;;;1.60;;
23498;SDS011;11926;48.120;11.562;2022-09-09T05:40:46;5.35;;;1.52;;
23498;SDS011;11926;48.120;11.562;2022-09-09T05:43:37;5.32;;;1.75;;
23498;SDS011;11926;48.120;11.562;2022-09-09T05:46:25;3.78;;;1.95;;
23498;SDS011;11926;48.120;11.562;2022-09-09T05:49:13;3.78;;;1.67;;
23498;SDS011;11926;48.120;11.562;2022-09-09T05:52:01;3.20;;;1.65;;
23498;SDS011;11926;48.120;11.562;2022-09-09T05:54:49;5.55;;;1.50;;
23498;SDS011;11926;48.120;11.562;2022-09-09T05:57:36;4.00;;;1.63;;
23498;SDS011;11926;48.120;11.562;2022-09-09T06:00:25;3.90;;;1.40;;
23498;SDS011;11926;48.120;11.562;2022-09-09T06:03:13;3.38;;;1.45;;
23498;SDS011;11926;48.120;11.562;2022-09-09T06:06:03;4.93;;;1.90;;
23498;SDS011;11926;48.120;11.562;2022-09-09T06:08:53;4.35;;;1.67;;
23498;SDS011;11926;48.120;11.562;2022-09-09T06:11:44;4.95;;;1.33;;
23498;SDS011;11926;48.120;11.562;2022-09-09T06:14:33;4.13;;;1.55;;
23498;SDS011;11926;48.120;11.562;2022-09-09T06:17:22;4.60;;;1.30;;
23498;SDS011;11926;48.120;11.562;2022-09-09T06:20:09;1.67;;;1.00;;
23498;SDS011;11926;48.120;11.562;2022-09-09T06:22:58;4.70;;;1.65;;
23498;SDS011;11926;48.120;11.562;2022-09-09T06:25:45;3.17;;;1.00;;
23498;SDS011;11926;48.120;11.562;2022-09-09T06:28:32;9.65;;;1.05;;
23498;SDS011;11926;48.120;11.562;2022-09-09T06:31:20;3.05;;;1.15;;
23498;SDS011;11926;48.120;11.562;2022-09-09T06:34:17;6.57;;;1.10;;
23498;SDS011;11926;48.120;11.562;2022-09-09T06:37:08;2.92;;;1.25;;
23498;SDS011;11926;48.120;11.562;2022-09-09T06:42:48;5.22;;;1.40;;
23498;SDS011;11926;48.120;11.562;2022-09-09T06:45:42;5.43;;;1.20;;
23498;SDS011;11926;48.120;11.562;2022-09-09T06:48:30;2.80;;;1.10;;
23498;SDS011;11926;48.120;11.562;2022-09-09T06:51:20;2.20;;;1.00;;
23498;SDS011;11926;48.120;11.562;2022-09-09T06:54:08;4.47;;;1.10;;
23498;SDS011;11926;48.120;11.562;2022-09-09T06:56:56;3.60;;;1.17;;
23498;SDS011;11926;48.120;11.562;2022-09-09T06:59:49;6.50;;;1.40;;
23498;SDS011;11926;48.120;11.562;2022-09-09T07:02:37;4.63;;;1.13;;
23498;SDS011;11926;48.120;11.562;2022-09-09T07:05:27;2.15;;;1.10;;
23498;SDS011;11926;48.120;11.562;2022-09-09T07:08:16;3.95;;;1.08;;
23498;SDS011;11926;48.120;11.562;2022-09-09T07:11:03;4.05;;;1.30;;
23498;SDS011;11926;48.120;11.562;2022-09-09T07:13:59;4.90;;;1.90;;
23498;SDS011;11926;48.120;11.562;2022-09-09T07:16:47;11.50;;;1.27;;
23498;SDS011;11926;48.120;11.562;2022-09-09T07:19:36;4.95;;;1.13;;
23498;SDS011;11926;48.120;11.562;2022-09-09T07:22:24;2.92;;;1.10;;
23498;SDS011;11926;48.120;11.562;2022-09-09T07:25:12;7.13;;;1.50;;
23498;SDS011;11926;48.120;11.562;2022-09-09T07:28:02;5.05;;;0.90;;
23498;SDS011;11926;48.120;11.562;2022-09-09T07:30:53;2.85;;;1.35;;
23498;SDS011;11926;48.120;11.562;2022-09-09T07:33:41;2.88;;;1.13;;
23498;SDS011;11926;48.120;11.562;2022-09-09T07:36:29;2.75;;;1.05;;
23498;SDS011;11926;48.120;11.562;2022-09-09T07:39:19;4.78;;;1.13;;
23498;SDS011;11926;48.120;11.562;2022-09-09T07:42:11;2.70;;;1.02;;
23498;SDS011;11926;48.120;11.562;2022-09-09T07:45:00;3.63;;;1.30;;
23498;SDS011;11926;48.120;11.562;2022-09-09T07:47:47;2.92;;;0.95;;
23498;SDS011;11926;48.120;11.562;2022-09-09T07:50:36;5.20;;;0.98;;
23498;SDS011;11926;48.120;11.562;2022-09-09T07:53:23;2.55;;;0.85;;
23498;SDS011;11926;48.120;11.562;2022-09-09T07:56:12;2.17;;;0.95;;
23498;SDS011;11926;48.120;11.562;2022-09-09T07:59:03;4.10;;;1.10;;
23498;SDS011;11926;48.120;11.562;2022-09-09T08:01:52;5.00;;;1.27;;
23498;SDS011;11926;48.120;11.562;2022-09-09T08:04:45;2.35;;;1.00;;
23498;SDS011;11926;48.120;11.562;2022-09-09T08:07:34;1.88;;;0.90;;
23498;SDS011;11926;48.120;11.562;2022-09-09T08:10:22;2.60;;;1.27;;
23498;SDS011;11926;48.120;11.562;2022-09-09T08:13:11;11.45;;;1.52;;
23498;SDS011;11926;48.120;11.562;2022-09-09T08:18:54;4.53;;;1.10;;
23498;SDS011;11926;48.120;11.562;2022-09-09T08:21:43;3.53;;;1.15;;
23498;SDS011;11926;48.120;11.562;2022-09-09T08:24:31;3.05;;;1.10;;
23498;SDS011;11926;48.120;11.562;2022-09-09T08:27:18;2.63;;;0.85;;
23498;SDS011;11926;48.120;11.562;2022-09-09T08:30:05;2.13;;;0.88;;
23498;SDS011;11926;48.120;11.562;2022-09-09T08:32:55;5.40;;;1.10;;
23498;SDS011;11926;48.120;11.562;2022-09-09T08:35:49;5.57;;;0.90;;
23498;SDS011;11926;48.120;11.562;2022-09-09T08:38:38;6.80;;;0.95;;
23498;SDS011;11926;48.120;11.562;2022-09-09T08:41:30;3.28;;;1.25;;
23498;SDS011;11926;48.120;11.562;2022-09-09T08:44:30;5.97;;;1.15;;
23498;SDS011;11926;48.120;11.562;2022-09-09T08:47:36;9.95;;;1.17;;
23498;SDS011;11926;48.120;11.562;2022-09-09T08:50:35;3.67;;;1.30;;
23498;SDS011;11926;48.120;11.562;2022-09-09T08:53:34;3.38;;;1.25;;
23498;SDS011;11926;48.120;11.562;2022-09-09T08:56:30;3.17;;;1.08;;
23498;SDS011;11926;48.120;11.562;2022-09-09T08:59:20;3.15;;;1.00;;
23498;SDS011;11926;48.120;11.562;2022-09-09T09:02:12;2.63;;;1.48;;
23498;SDS011;11926;48.120;11.562;2022-09-09T09:05:09;3.95;;;1.40;;
23498;SDS011;11926;48.120;11.562;2022-09-09T09:08:07;3.97;;;1.27;;
23498;SDS011;11926;48.120;11.562;2022-09-09T09:11:01;3.83;;;1.00;;
23498;SDS011;11926;48.120;11.562;2022-09-09T09:13:50;3.25;;;1.23;;
23498;SDS011;11926;48.120;11.562;2022-09-09T09:16:42;4.50;;;1.25;;
23498;SDS011;11926;48.120;11.562;2022-09-09T09:19:39;3.03;;;1.00;;
23498;SDS011;11926;48.120;11.562;2022-09-09T09:22:41;3.28;;;1.30;;
23498;SDS011;11926;48.120;11.562;2022-09-09T09:25:37;7.40;;;1.33;;
23498;SDS011;11926;48.120;11.562;2022-09-09T09:28:29;5.78;;;1.17;;
23498;SDS011;11926;48.120;11.562;2022-09-09T09:31:25;6.25;;;1.60;;
23498;SDS011;11926;48.120;11.562;2022-09-09T09:34:12;3.63;;;1.30;;
23498;SDS011;11926;48.120;11.562;2022-09-09T09:37:00;4.05;;;1.90;;
23498;SDS011;11926;48.120;11.562;2022-09-09T09:40:07;4.05;;;1.35;;
23498;SDS011;11926;48.120;11.562;2022-09-09T09:42:58;3.42;;;1.50;;
23498;SDS011;11926;48.120;11.562;2022-09-09T09:45:49;8.98;;;1.33;;
23498;SDS011;11926;48.120;11.562;2022-09-09T09:48:57;2.88;;;1.38;;
23498;SDS011;11926;48.120;11.562;2022-09-09T09:51:46;5.70;;;1.60;;
23498;SDS011;11926;48.120;11.562;2022-09-09T09:54:37;3.97;;;1.52;;
23498;SDS011;11926;48.120;11.562;2022-09-09T09:57:29;3.08;;;1.20;;
23498;SDS011;11926;48.120;11.562;2022-09-09T10:00:24;3.05;;;1.20;;
23498;SDS011;11926;48.120;11.562;2022-09-09T10:03:22;5.28;;;2.38;;
23498;SDS011;11926;48.120;11.562;2022-09-09T10:06:13;5.60;;;1.45;;
23498;SDS011;11926;48.120;11.562;2022-09-09T10:09:00;4.05;;;1.30;;
23498;SDS011;11926;48.120;11.562;2022-09-09T10:11:52;3.53;;;1.20;;
23498;SDS011;11926;48.120;11.562;2022-09-09T10:14:50;2.63;;;1.20;;
23498;SDS011;11926;48.120;11.562;2022-09-09T10:17:47;2.92;;;1.20;;
23498;SDS011;11926;48.120;11.562;2022-09-09T10:20:45;3.72;;;0.98;;
23498;SDS011;11926;48.120;11.562;2022-09-09T10:23:45;1.92;;;0.88;;
23498;SDS011;11926;48.120;11.562;2022-09-09T10:26:44;2.58;;;1.05;;
23498;SDS011;11926;48.120;11.562;2022-09-09T10:29:42;2.20;;;1.00;;
23498;SDS011;11926;48.120;11.562;2022-09-09T10:32:44;4.80;;;1.77;;
23498;SDS011;11926;48.120;11.562;2022-09-09T10:35:38;5.82;;;1.75;;
23498;SDS011;11926;48.120;11.562;2022-09-09T10:38:34;7.43;;;2.00;;
23498;SDS011;11926;48.120;11.562;2022-09-09T10:41:35;3.80;;;1.40;;
23498;SDS011;11926;48.120;11.562;2022-09-09T10:44:38;2.38;;;1.00;;
23498;SDS011;11926;48.120;11.562;2022-09-09T10:47:40;2.25;;;0.90;;
23498;SDS011;11926;48.120;11.562;2022-09-09T10:50:47;2.40;;;0.90;;
23498;SDS011;11926;48.120;11.562;2022-09-09T10:53:52;4.57;;;1.05;;
23498;SDS011;11926;48.120;11.562;2022-09-09T10:56:52;4.68;;;0.98;;
23498;SDS011;11926;48.120;11.562;2022-09-09T10:59:46;4.22;;;1.00;;
23498;SDS011;11926;48.120;11.562;2022-09-09T11:02:37;1.92;;;0.85;;
23498;SDS011;11926;48.120;11.562;2022-09-09T11:05:27;4.53;;;1.02;;
23498;SDS011;11926;48.120;11.562;2022-09-09T11:08:21;3.38;;;1.10;;
23498;SDS011;11926;48.120;11.562;2022-09-09T11:11:12;1.63;;;0.90;;
23498;SDS011;11926;48.120;11.562;2022-09-09T11:14:07;5.05;;;1.02;;
23498;SDS011;11926;48.120;11.562;2022-09-09T11:17:02;5.55;;;1.30;;
23498;SDS011;11926;48.120;11.562;2022-09-09T11:19:52;3.72;;;0.70;;
23498;SDS011;11926;48.120;11.562;2022-09-09T11:22:43;3.40;;;0.98;;
23498;SDS011;11926;48.120;11.562;2022-09-09T11:25:36;3.90;;;0.82;;
23498;SDS011;11926;48.120;11.562;2022-09-09T11:28:30;1.52;;;0.70;;
23498;SDS011;11926;48.120;11.562;2022-09-09T11:31:36;1.60;;;0.77;;
23498;SDS011;11926;48.120;11.562;2022-09-09T11:34:37;2.88;;;0.75;;
23498;SDS011;11926;48.120;11.562;2022-09-09T11:37:40;3.90;;;0.98;;
23498;SDS011;11926;48.120;11.562;2022-09-09T11:40:42;1.63;;;0.70;;
23498;SDS011;11926;48.120;11.562;2022-09-09T11:43:31;1.38;;;0.50;;
23498;SDS011;11926;48.120;11.562;2022-09-09T11:46:31;2.67;;;1.13;;
23498;SDS011;11926;48.120;11.562;2022-09-09T11:49:26;2.42;;;0.80;;
23498;SDS011;11926;48.120;11.562;2022-09-09T11:52:20;4.18;;;0.63;;
23498;SDS011;11926;48.120;11.562;2022-09-09T11:55:11;2.55;;;0.70;;
23498;SDS011;11926;48.120;11.562;2022-09-09T11:58:16;1.40;;;0.40;;
23498;SDS011;11926;48.120;11.562;2022-09-09T12:01:13;1.58;;;0.73;;
23498;SDS011;11926;48.120;11.562;2022-09-09T12:04:12;2.45;;;0.60;;
23498;SDS011;11926;48.120;11.562;2022-09-09T12:07:23;2.53;;;0.50;;
23498;SDS011;11926;48.120;11.562;2022-09-09T12:10:20;0.88;;;0.40;;
23498;SDS011;11926;48.120;11.562;2022-09-09T12:13:17;3.10;;;0.60;;
23498;SDS011;11926;48.120;11.562;2022-09-09T12:16:26;2.20;;;0.60;;
23498;SDS011;11926;48.120;11.562;2022-09-09T12:19:18;4.38;;;1.10;;
23498;SDS011;11926;48.120;11.562;2022-09-09T12:25:05;2.33;;;0.73;;
23498;SDS011;11926;48.120;11.562;2022-09-09T12:28:09;1.90;;;0.60;;
23498;SDS011;11926;48.120;11.562;2022-09-09T12:31:04;4.50;;;0.80;;
23498;SDS011;11926;48.120;11.562;2022-09-09T12:33:55;3.58;;;0.68;;
23498;SDS011;11926;48.120;11.562;2022-09-09T12:36:57;2.45;;;0.80;;
23498;SDS011;11926;48.120;11.562;2022-09-09T12:39:52;6.20;;;0.93;;
23498;SDS011;11926;48.120;11.562;2022-09-09T12:42:41;4.57;;;0.70;;
23498;SDS011;11926;48.120;11.562;2022-09-09T12:45:30;3.03;;;0.70;;
23498;SDS011;11926;48.120;11.562;2022-09-09T12:48:22;4.35;;;1.10;;
23498;SDS011;11926;48.120;11.562;2022-09-09T12:51:18;1.40;;;0.50;;
23498;SDS011;11926;48.120;11.562;2022-09-09T12:54:12;1.40;;;0.77;;
23498;SDS011;11926;48.120;11.562;2022-09-09T12:57:00;2.05;;;0.50;;
23498;SDS011;11926;48.120;11.562;2022-09-09T12:59:48;3.90;;;0.57;;
23498;SDS011;11926;48.120;11.562;2022-09-09T13:02:35;3.00;;;0.60;;
23498;SDS011;11926;48.120;11.562;2022-09-09T13:05:23;2.28;;;1.02;;
23498;SDS011;11926;48.120;11.562;2022-09-09T13:08:12;3.28;;;0.70;;
23498;SDS011;11926;48.120;11.562;2022-09-09T13:11:01;1.52;;;0.65;;
23498;SDS011;11926;48.120;11.562;2022-09-09T13:13:51;2.38;;;0.63;;
23498;SDS011;11926;48.120;11.562;2022-09-09T13:16:41;2.00;;;0.50;;
23498;SDS011;11926;48.120;11.562;2022-09-09T13:19:28;1.75;;;0.60;;
23498;SDS011;11926;48.120;11.562;2022-09-09T13:22:22;1.55;;;0.60;;
23498;SDS011;11926;48.120;11.562;2022-09-09T13:25:18;0.50;;;0.30;;
23498;SDS011;11926;48.120;11.562;2022-09-09T13:28:18;1.87;;;0.63;;
23498;SDS011;11926;48.120;11.562;2022-09-09T13:31:19;0.88;;;0.30;;
23498;SDS011;11926;48.120;11.562;2022-09-09T13:34:12;1.30;;;0.47;;
23498;SDS011;11926;48.120;11.562;2022-09-09T13:37:01;1.70;;;0.70;;
23498;SDS011;11926;48.120;11.562;2022-09-09T13:39:53;1.65;;;0.55;;
23498;SDS011;11926;48.120;11.562;2022-09-09T13:42:41;0.90;;;0.40;;
23498;SDS011;11926;48.120;11.562;2022-09-09T13:45:29;1.60;;;0.70;;
23498;SDS011;11926;48.120;11.562;2022-09-09T13:48:17;4.20;;;0.63;;
23498;SDS011;11926;48.120;11.562;2022-09-09T13:51:05;2.97;;;0.55;;
23498;SDS011;11926;48.120;11.562;2022-09-09T13:54:09;3.85;;;0.60;;
23498;SDS011;11926;48.120;11.562;2022-09-09T13:56:58;3.25;;;0.60;;
23498;SDS011;11926;48.120;11.562;2022-09-09T13:59:46;1.30;;;0.45;;
23498;SDS011;11926;48.120;11.562;2022-09-09T14:02:50;1.23;;;0.50;;
23498;SDS011;11926;48.120;11.562;2022-09-09T14:05:40;0.82;;;0.40;;
23498;SDS011;11926;48.120;11.562;2022-09-09T14:08:27;5.30;;;0.77;;
23498;SDS011;11926;48.120;11.562;2022-09-09T14:11:24;1.85;;;0.60;;
23498;SDS011;11926;48.120;11.562;2022-09-09T14:14:12;2.75;;;0.70;;
23498;SDS011;11926;48.120;11.562;2022-09-09T14:17:00;1.38;;;0.52;;
23498;SDS011;11926;48.120;11.562;2022-09-09T14:19:52;1.60;;;0.80;;
23498;SDS011;11926;48.120;11.562;2022-09-09T14:22:40;1.75;;;0.50;;
23498;SDS011;11926;48.120;11.562;2022-09-09T14:25:27;3.17;;;0.55;;
23498;SDS011;11926;48.120;11.562;2022-09-09T14:28:14;1.08;;;0.63;;
23498;SDS011;11926;48.120;11.562;2022-09-09T14:31:11;2.60;;;0.52;;
23498;SDS011;11926;48.120;11.562;2022-09-09T14:33:59;1.52;;;0.68;;
23498;SDS011;11926;48.120;11.562;2022-09-09T14:36:47;3.13;;;0.77;;
23498;SDS011;11926;48.120;11.562;2022-09-09T14:39:34;2.45;;;0.57;;
23498;SDS011;11926;48.120;11.562;2022-09-09T14:42:22;4.05;;;0.70;;
23498;SDS011;11926;48.120;11.562;2022-09-09T14:45:09;1.75;;;0.43;;
23498;SDS011;11926;48.120;11.562;2022-09-09T14:47:58;4.75;;;1.35;;
23498;SDS011;11926;48.120;11.562;2022-09-09T14:50:45;4.10;;;0.90;;
23498;SDS011;11926;48.120;11.562;2022-09-09T14:53:32;2.42;;;1.20;;
23498;SDS011;11926;48.120;11.562;2022-09-09T14:56:20;2.53;;;0.70;;
23498;SDS011;11926;48.120;11.562;2022-09-09T14:59:09;3.90;;;0.68;;
23498;SDS011;11926;48.120;11.562;2022-09-09T15:01:56;0.63;;;0.38;;
23498;SDS011;11926;48.120;11.562;2022-09-09T15:04:45;3.42;;;1.05;;
23498;SDS011;11926;48.120;11.562;2022-09-09T15:07:32;4.20;;;0.82;;
23498;SDS011;11926;48.120;11.562;2022-09-09T15:10:19;4.55;;;0.70;;
23498;SDS011;11926;48.120;11.562;2022-09-09T15:13:07;3.85;;;0.70;;
23498;SDS011;11926;48.120;11.562;2022-09-09T15:15:54;2.95;;;0.73;;
23498;SDS011;11926;48.120;11.562;2022-09-09T15:18:42;3.08;;;0.68;;
23498;SDS011;11926;48.120;11.562;2022-09-09T15:21:33;1.75;;;0.70;;
23498;SDS011;11926;48.120;11.562;2022-09-09T15:24:22;1.75;;;0.60;;
23498;SDS011;11926;48.120;11.562;2022-09-09T15:27:11;3.17;;;0.80;;
23498;SDS011;11926;48.120;11.562;2022-09-09T15:30:00;4.75;;;0.70;;
23498;SDS011;11926;48.120;11.562;2022-09-09T15:32:47;3.42;;;1.10;;
23498;SDS011;11926;48.120;11.562;2022-09-09T15:35:34;2.88;;;0.88;;
23498;SDS011;11926;48.120;11.562;2022-09-09T15:38:22;1.95;;;0.75;;
23498;SDS011;11926;48.120;11.562;2022-09-09T15:41:10;2.45;;;0.90;;
23498;SDS011;11926;48.120;11.562;2022-09-09T15:43:57;5.70;;;1.45;;
23498;SDS011;11926;48.120;11.562;2022-09-09T15:46:46;4.13;;;0.82;;
23498;SDS011;11926;48.120;11.562;2022-09-09T15:49:35;3.65;;;0.55;;
23498;SDS011;11926;48.120;11.562;2022-09-09T15:52:23;5.25;;;1.00;;
23498;SDS011;11926;48.120;11.562;2022-09-09T15:55:12;3.38;;;0.90;;
23498;SDS011;11926;48.120;11.562;2022-09-09T15:57:59;6.93;;;1.00;;
23498;SDS011;11926;48.120;11.562;2022-09-09T16:00:46;2.55;;;0.70;;
23498;SDS011;11926;48.120;11.562;2022-09-09T16:03:33;1.60;;;0.65;;
23498;SDS011;11926;48.120;11.562;2022-09-09T16:06:29;2.03;;;0.65;;
23498;SDS011;11926;48.120;11.562;2022-09-09T16:09:18;2.40;;;0.63;;
23498;SDS011;11926;48.120;11.562;2022-09-09T16:12:07;2.55;;;0.60;;
23498;SDS011;11926;48.120;11.562;2022-09-09T16:14:57;2.97;;;0.68;;
23498;SDS011;11926;48.120;11.562;2022-09-09T16:17:44;3.78;;;1.00;;
23498;SDS011;11926;48.120;11.562;2022-09-09T16:20:32;3.78;;;1.40;;
23498;SDS011;11926;48.120;11.562;2022-09-09T16:23:19;2.90;;;0.80;;
23498;SDS011;11926;48.120;11.562;2022-09-09T16:26:06;4.38;;;1.02;;
23498;SDS011;11926;48.120;11.562;2022-09-09T16:28:56;2.03;;;0.73;;
23498;SDS011;11926;48.120;11.562;2022-09-09T16:31:44;6.10;;;0.80;;
23498;SDS011;11926;48.120;11.562;2022-09-09T16:34:32;2.95;;;0.75;;
23498;SDS011;11926;48.120;11.562;2022-09-09T16:37:19;2.22;;;0.77;;
23498;SDS011;11926;48.120;11.562;2022-09-09T16:40:07;3.67;;;0.60;;
23498;SDS011;11926;48.120;11.562;2022-09-09T16:42:54;2.67;;;0.63;;
23498;SDS011;11926;48.120;11.562;2022-09-09T16:45:44;1.60;;;0.70;;
23498;SDS011;11926;48.120;11.562;2022-09-09T16:48:32;2.60;;;0.57;;
23498;SDS011;11926;48.120;11.562;2022-09-09T16:51:20;3.55;;;0.77;;
23498;SDS011;11926;48.120;11.562;2022-09-09T16:54:09;3.15;;;0.80;;
23498;SDS011;11926;48.120;11.562;2022-09-09T16:56:59;2.80;;;0.80;;
23498;SDS011;11926;48.120;11.562;2022-09-09T16:59:46;3.70;;;0.85;;
23498;SDS011;11926;48.120;11.562;2022-09-09T17:02:34;3.95;;;0.85;;
23498;SDS011;11926;48.120;11.562;2022-09-09T17:05:21;4.18;;;0.80;;
23498;SDS011;11926;48.120;11.562;2022-09-09T17:08:10;3.08;;;0.80;;